createdAt,value
2022-08-26T00:00:11.521Z,98020.06
2022-08-26T00:02:43.121Z,98022.56
2022-08-26T00:05:12.369Z,98019.28
2022-08-26T00:07:41.570Z,98019.41
2022-08-26T00:10:13.335Z,98012.78
2022-08-26T00:12:43.906Z,98012.16
2022-08-26T00:15:19.099Z,98018.78
2022-08-26T00:17:53.516Z,98021.00
2022-08-26T00:20:29.851Z,98016.22
2022-08-26T00:22:59.932Z,98020.50
2022-08-26T00:25:30.142Z,98012.28
2022-08-26T00:27:59.467Z,98013.06
2022-08-26T00:30:32.053Z,98016.22
2022-08-26T00:33:05.049Z,98012.13
2022-08-26T00:35:36.183Z,98011.31
2022-08-26T00:38:05.665Z,98013.53
2022-08-26T00:40:40.828Z,98010.13
2022-08-26T00:43:10.139Z,98018.34
2022-08-26T00:45:45.450Z,98012.97
2022-08-26T00:48:20.745Z,98013.06
2022-08-26T00:50:55.881Z,98010.53
2022-08-26T00:53:29.630Z,98013.97
2022-08-26T00:56:04.814Z,98014.47
2022-08-26T00:58:37.659Z,98015.44
2022-08-26T01:01:07.361Z,98014.78
2022-08-26T01:03:40.343Z,98016.84
2022-08-26T01:06:12.510Z,98020.31
2022-08-26T01:08:42.737Z,98023.09
2022-08-26T01:11:13.927Z,98021.34
2022-08-26T01:13:43.446Z,98024.41
2022-08-26T01:16:16.182Z,98026.59
2022-08-26T01:18:47.748Z,98024.09
2022-08-26T01:21:27.394Z,98023.09
2022-08-26T01:24:00.965Z,98021.09
2022-08-26T01:26:34.969Z,98016.09
2022-08-26T01:29:08.086Z,98027.13
2022-08-26T01:31:43.407Z,98024.09
2022-08-26T01:34:20.196Z,98019.06
2022-08-26T01:36:51.806Z,98029.03
2022-08-26T01:39:22.609Z,98021.44
2022-08-26T01:41:54.967Z,98034.91
2022-08-26T01:44:30.654Z,98034.66
2022-08-26T01:47:02.273Z,98027.69
2022-08-26T01:49:36.735Z,98021.06
2022-08-26T01:52:09.758Z,98026.38
2022-08-26T01:54:41.805Z,98025.72
2022-08-26T01:57:17.976Z,98026.00
2022-08-26T01:59:47.983Z,98018.56
2022-08-26T02:02:17.794Z,98016.53
2022-08-26T02:04:54.491Z,98017.78
2022-08-26T02:07:26.614Z,98017.34
2022-08-26T02:09:57.633Z,98013.06
2022-08-26T02:12:28.027Z,98017.28
2022-08-26T02:15:02.756Z,98010.94
2022-08-26T02:17:41.188Z,98006.19
2022-08-26T02:20:14.974Z,98005.66
2022-08-26T02:22:45.854Z,98013.38
2022-08-26T02:25:25.975Z,98012.03
2022-08-26T02:27:56.810Z,98011.13
2022-08-26T02:30:29.673Z,98008.56
2022-08-26T02:33:03.768Z,98000.34
2022-08-26T02:35:35.777Z,98000.66
2022-08-26T02:38:09.791Z,98010.72
2022-08-26T02:40:43.960Z,97997.53
2022-08-26T02:43:13.598Z,98003.59
2022-08-26T02:45:43.644Z,98000.78
2022-08-26T02:48:16.784Z,97994.19
2022-08-26T02:50:48.263Z,98000.00
2022-08-26T02:53:24.479Z,97997.34
2022-08-26T02:55:56.079Z,97999.50
2022-08-26T02:58:25.279Z,97996.94
2022-08-26T03:00:55.834Z,97990.56
2022-08-26T03:03:25.283Z,97995.34
2022-08-26T03:05:55.181Z,97996.09
2022-08-26T03:08:24.366Z,97993.19
2022-08-26T03:10:56.020Z,97992.50
2022-08-26T03:13:25.163Z,97996.25
2022-08-26T03:15:55.271Z,97989.72
2022-08-26T03:18:25.474Z,97989.50
2022-08-26T03:20:54.744Z,97993.59
2022-08-26T03:23:25.163Z,97991.38
2022-08-26T03:25:55.742Z,97989.00
2022-08-26T03:28:27.243Z,97993.88
2022-08-26T03:30:55.690Z,97985.03
2022-08-26T03:33:25.387Z,97991.75
2022-08-26T03:35:55.935Z,97986.34
2022-08-26T03:38:26.332Z,97988.59
2022-08-26T03:40:57.235Z,97988.59
2022-08-26T03:43:27.627Z,97984.63
2022-08-26T03:45:56.828Z,97976.50
2022-08-26T03:48:26.621Z,97982.78
2022-08-26T03:50:55.838Z,97987.91
2022-08-26T03:53:27.095Z,97986.31
2022-08-26T03:55:57.637Z,97982.38
2022-08-26T03:58:26.911Z,97989.44
2022-08-26T04:00:56.087Z,97987.69
2022-08-26T04:03:39.681Z,97988.22
2022-08-26T04:06:09.255Z,97990.69
2022-08-26T04:08:39.042Z,97986.63
2022-08-26T04:11:10.239Z,97990.59
2022-08-26T04:13:39.534Z,97989.00
2022-08-26T04:16:09.391Z,97986.53
2022-08-26T04:18:40.605Z,97986.72
2022-08-26T04:21:17.382Z,97989.00
2022-08-26T04:23:47.751Z,97984.16
2022-08-26T04:26:20.552Z,97988.56
2022-08-26T04:28:50.746Z,97988.44
2022-08-26T04:31:22.527Z,97990.41
2022-08-26T04:33:51.738Z,97998.31
2022-08-26T04:36:20.867Z,98005.44
2022-08-26T04:38:50.762Z,97991.94
2022-08-26T04:41:22.646Z,97986.34
2022-08-26T04:43:52.012Z,97994.94
2022-08-26T04:46:24.557Z,97995.59
2022-08-26T04:48:55.248Z,97999.13
2022-08-26T04:51:27.985Z,97995.94
2022-08-26T04:53:59.285Z,97999.78
2022-08-26T04:56:35.038Z,97997.19
2022-08-26T04:59:08.005Z,97992.97
2022-08-26T05:01:48.002Z,97997.41
2022-08-26T05:04:18.775Z,97994.75
2022-08-26T05:06:48.995Z,97994.47
2022-08-26T05:09:19.515Z,97991.63
2022-08-26T05:11:52.099Z,97998.00
2022-08-26T05:14:23.297Z,97997.41
2022-08-26T05:16:54.083Z,98004.41
2022-08-26T05:19:23.793Z,98002.69
2022-08-26T05:21:53.029Z,97995.94
2022-08-26T05:24:22.244Z,98005.78
2022-08-26T05:26:53.136Z,98002.94
2022-08-26T05:29:22.488Z,98011.50
2022-08-26T05:31:53.636Z,98003.81
2022-08-26T05:34:25.770Z,98005.22
2022-08-26T05:36:59.591Z,98011.53
2022-08-26T05:39:33.589Z,98004.63
2022-08-26T05:42:05.785Z,98011.22
2022-08-26T05:44:53.795Z,98000.34
2022-08-26T05:47:25.369Z,98006.50
2022-08-26T05:49:55.447Z,98016.31
2022-08-26T05:52:26.096Z,98006.16
2022-08-26T05:54:55.420Z,98006.78
2022-08-26T05:57:26.087Z,98008.59
2022-08-26T05:59:57.536Z,98002.38
2022-08-26T06:02:26.828Z,98010.38
2022-08-26T06:04:56.055Z,98014.44
2022-08-26T06:07:45.373Z,98010.56
2022-08-26T06:10:31.599Z,98007.28
2022-08-26T06:13:11.653Z,98002.44
2022-08-26T06:15:44.353Z,98014.00
2022-08-26T06:18:14.978Z,98013.94
2022-08-26T06:20:56.853Z,98013.81
2022-08-26T06:23:47.316Z,98012.66
2022-08-26T06:26:17.888Z,98011.19
2022-08-26T06:28:48.503Z,98009.13
2022-08-26T06:31:17.737Z,98011.50
2022-08-26T06:33:46.966Z,98015.44
2022-08-26T06:36:21.029Z,98016.56
2022-08-26T06:38:51.301Z,98012.22
2022-08-26T06:41:22.762Z,98015.31
2022-08-26T06:43:53.523Z,98016.91
2022-08-26T06:46:23.436Z,98011.28
2022-08-26T06:48:55.900Z,98015.44
2022-08-26T06:51:28.519Z,98011.91
2022-08-26T06:54:00.616Z,98014.44
2022-08-26T06:56:36.005Z,98017.44
2022-08-26T06:59:07.783Z,98014.19
2022-08-26T07:01:43.027Z,98012.41
2022-08-26T07:04:21.953Z,98014.00
2022-08-26T07:06:53.971Z,98010.41
2022-08-26T07:09:27.371Z,98009.69
2022-08-26T07:11:57.378Z,98008.56
2022-08-26T07:14:27.984Z,98008.63
2022-08-26T07:16:57.131Z,98011.09
2022-08-26T07:19:31.150Z,98005.88
2022-08-26T07:22:03.664Z,98006.69
2022-08-26T07:24:35.370Z,98011.88
2022-08-26T07:27:08.797Z,98010.09
2022-08-26T07:29:42.382Z,98005.19
2022-08-26T07:32:14.305Z,98008.16
2022-08-26T07:34:44.569Z,98005.59
2022-08-26T07:37:13.721Z,98006.41
2022-08-26T07:39:44.391Z,98005.91
2022-08-26T07:42:18.521Z,98001.78
2022-08-26T07:44:50.124Z,97999.00
2022-08-26T07:47:25.212Z,97990.47
2022-08-26T07:49:57.548Z,97993.09
2022-08-26T07:52:29.912Z,97992.38
2022-08-26T07:55:02.484Z,97990.78
2022-08-26T07:57:31.824Z,97993.41
2022-08-26T08:00:03.025Z,97998.34
2022-08-26T08:02:41.213Z,97995.22
2022-08-26T08:05:10.501Z,97993.91
2022-08-26T08:07:45.288Z,97999.25
2022-08-26T08:10:22.471Z,97991.31
2022-08-26T08:12:54.892Z,97991.19
2022-08-26T08:15:31.106Z,97988.97
2022-08-26T08:18:00.984Z,97993.03
2022-08-26T08:20:31.039Z,97988.19
2022-08-26T08:23:00.533Z,97993.56
2022-08-26T08:25:29.808Z,97991.13
2022-08-26T08:27:58.941Z,97992.38
2022-08-26T08:30:29.524Z,97985.97
2022-08-26T08:32:58.616Z,97984.25
2022-08-26T08:35:28.854Z,97985.63
2022-08-26T08:37:59.088Z,97988.53
2022-08-26T08:40:29.224Z,97984.41
2022-08-26T08:43:04.562Z,97984.81
2022-08-26T08:45:41.032Z,97987.75
2022-08-26T08:48:21.141Z,97983.78
2022-08-26T08:51:09.293Z,97980.66
2022-08-26T08:53:43.200Z,97977.31
2022-08-26T08:56:23.738Z,97983.06
2022-08-26T08:59:00.959Z,97978.06
2022-08-26T09:01:54.137Z,97974.56
2022-08-26T09:04:56.118Z,97974.94
2022-08-26T09:07:36.309Z,97967.66
2022-08-26T09:10:27.846Z,97971.50
2022-08-26T09:12:57.080Z,97969.66
2022-08-26T09:15:33.867Z,97975.81
2022-08-26T09:18:12.222Z,97967.22
2022-08-26T09:20:56.748Z,97971.75
2022-08-26T09:23:27.063Z,97971.91
2022-08-26T09:25:59.473Z,97965.66
2022-08-26T09:28:31.552Z,97972.78
2022-08-26T09:31:12.455Z,97969.66
2022-08-26T09:33:44.548Z,97967.13
2022-08-26T09:36:22.890Z,97973.06
2022-08-26T09:38:55.168Z,97970.06
2022-08-26T09:41:31.733Z,97972.78
2022-08-26T09:44:15.739Z,97964.50
2022-08-26T09:46:56.778Z,97970.41
2022-08-26T09:49:36.595Z,97969.69
2022-08-26T09:52:16.758Z,97957.19
2022-08-26T09:54:59.443Z,97960.03
2022-08-26T09:57:33.021Z,97966.69
2022-08-26T10:00:23.691Z,97965.16
2022-08-26T10:02:57.937Z,97970.25
2022-08-26T10:05:43.838Z,97966.06
2022-08-26T10:08:28.371Z,97955.81
2022-08-26T10:11:00.111Z,97960.88
2022-08-26T10:13:35.922Z,97960.28
2022-08-26T10:16:15.791Z,97950.38
2022-08-26T10:18:55.665Z,97949.78
2022-08-26T10:21:36.521Z,97947.97
2022-08-26T10:24:11.450Z,97950.84
2022-08-26T10:26:47.821Z,97949.31
2022-08-26T10:29:22.273Z,97940.91
2022-08-26T10:32:02.432Z,97938.56
2022-08-26T10:34:34.305Z,97938.19
2022-08-26T10:37:14.592Z,97938.56
2022-08-26T10:39:57.229Z,97935.38
2022-08-26T10:42:35.439Z,97924.94
2022-08-26T10:45:15.294Z,97933.78
2022-08-26T10:47:54.175Z,97928.81
2022-08-26T10:50:26.237Z,97924.50
2022-08-26T10:53:03.406Z,97922.94
2022-08-26T10:55:42.254Z,97916.78
2022-08-26T10:58:32.660Z,97920.56
2022-08-26T11:01:30.351Z,97912.47
2022-08-26T11:04:09.694Z,97918.75
2022-08-26T11:06:39.356Z,97920.66
2022-08-26T11:09:13.923Z,97917.16
2022-08-26T11:11:51.196Z,97917.13
2022-08-26T11:14:53.602Z,97913.53
2022-08-26T11:18:00.035Z,97917.63
2022-08-26T11:20:42.201Z,97911.72
2022-08-26T11:23:50.471Z,97916.34
2022-08-26T11:26:56.041Z,97910.03
2022-08-26T11:30:05.921Z,97901.78
2022-08-26T11:32:51.308Z,97896.84
2022-08-26T11:35:50.692Z,97894.53
2022-08-26T11:38:30.214Z,97891.75
2022-08-26T11:41:10.068Z,97895.13
2022-08-26T11:43:42.675Z,97887.41
2022-08-26T11:46:14.039Z,97890.47
2022-08-26T11:48:44.551Z,97882.31
2022-08-26T11:51:22.311Z,97875.22
2022-08-26T11:53:52.407Z,97874.06
2022-08-26T11:56:31.813Z,97866.19
2022-08-26T11:59:09.685Z,97870.94
2022-08-26T12:01:43.911Z,97866.34
2022-08-26T12:04:23.204Z,97853.72
2022-08-26T12:06:53.515Z,97860.69
2022-08-26T12:09:26.641Z,97858.56
2022-08-26T12:12:12.463Z,97850.69
2022-08-26T12:14:43.774Z,97856.16
2022-08-26T12:17:16.903Z,97860.78
2022-08-26T12:19:47.009Z,97844.84
2022-08-26T12:22:23.568Z,97853.94
2022-08-26T12:24:56.839Z,97845.19
2022-08-26T12:27:29.400Z,97848.50
2022-08-26T12:30:09.611Z,97842.81
2022-08-26T12:32:51.050Z,97842.75
2022-08-26T12:35:28.866Z,97838.34
2022-08-26T12:37:59.642Z,97838.41
2022-08-26T12:40:37.430Z,97842.47
2022-08-26T12:43:08.920Z,97845.72
2022-08-26T12:45:44.257Z,97829.31
2022-08-26T12:48:24.601Z,97824.22
2022-08-26T12:50:54.178Z,97811.84
2022-08-26T12:53:25.763Z,97817.94
2022-08-26T12:55:58.016Z,97807.47
2022-08-26T12:58:31.738Z,97815.22
2022-08-26T13:01:23.651Z,97813.72
2022-08-26T13:03:53.466Z,97808.56
2022-08-26T13:06:31.534Z,97809.81
2022-08-26T13:09:05.538Z,97808.81
2022-08-26T13:11:57.374Z,97807.16
2022-08-26T13:14:26.752Z,97789.50
2022-08-26T13:16:57.462Z,97782.44
2022-08-26T13:19:27.385Z,97780.56
2022-08-26T13:21:58.909Z,97772.44
2022-08-26T13:24:41.328Z,97764.44
2022-08-26T13:27:13.923Z,97760.38
2022-08-26T13:29:43.475Z,97763.47
2022-08-26T13:32:15.005Z,97762.34
2022-08-26T13:34:46.203Z,97766.50
2022-08-26T13:37:22.336Z,97765.88
2022-08-26T13:40:06.479Z,97765.06
2022-08-26T13:42:36.005Z,97772.53
2022-08-26T13:45:06.636Z,97770.78
2022-08-26T13:47:37.442Z,97753.06
2022-08-26T13:50:07.920Z,97752.25
2022-08-26T13:52:37.137Z,97756.75
2022-08-26T13:55:08.016Z,97753.22
2022-08-26T13:57:37.182Z,97757.00
2022-08-26T14:00:11.096Z,97753.59
2022-08-26T14:02:41.789Z,97752.72
2022-08-26T14:05:12.308Z,97748.91
2022-08-26T14:07:42.124Z,97747.38
2022-08-26T14:10:12.023Z,97733.56
2022-08-26T14:12:41.178Z,97740.28
2022-08-26T14:15:11.839Z,97745.84
2022-08-26T14:17:42.667Z,97743.91
2022-08-26T14:20:15.340Z,97734.81
2022-08-26T14:23:03.403Z,97732.56
2022-08-26T14:25:35.631Z,97726.63
2022-08-26T14:28:05.437Z,97719.69
2022-08-26T14:30:35.067Z,97718.91
2022-08-26T14:33:07.436Z,97719.84
2022-08-26T14:35:36.894Z,97726.97
2022-08-26T14:38:06.603Z,97729.94
2022-08-26T14:40:38.221Z,97722.16
2022-08-26T14:43:09.502Z,97717.66
2022-08-26T14:45:44.096Z,97705.16
2022-08-26T14:48:14.838Z,97698.72
2022-08-26T14:50:44.394Z,97689.00
2022-08-26T14:53:30.927Z,97684.03
2022-08-26T14:56:00.351Z,97681.75
2022-08-26T14:58:34.881Z,97684.38
2022-08-26T15:01:04.586Z,97691.34
2022-08-26T15:03:35.326Z,97692.75
2022-08-26T15:06:04.838Z,97699.00
2022-08-26T15:08:36.762Z,97704.75
2022-08-26T15:11:06.285Z,97696.69
2022-08-26T15:13:35.698Z,97700.81
2022-08-26T15:16:05.542Z,97696.56
2022-08-26T15:18:36.118Z,97696.94
2022-08-26T15:21:06.426Z,97688.97
2022-08-26T15:23:36.076Z,97683.44
2022-08-26T15:26:06.271Z,97686.53
2022-08-26T15:28:35.492Z,97675.16
2022-08-26T15:31:04.693Z,97687.69
2022-08-26T15:33:36.129Z,97680.97
2022-08-26T15:36:07.592Z,97687.34
2022-08-26T15:38:41.307Z,97680.88
2022-08-26T15:41:11.757Z,97678.22
2022-08-26T15:43:41.887Z,97671.88
2022-08-26T15:46:12.624Z,97667.38
2022-08-26T15:48:43.446Z,97663.34
2022-08-26T15:51:22.772Z,97652.56
2022-08-26T15:53:52.971Z,97653.69
2022-08-26T15:56:22.157Z,97660.38
2022-08-26T15:58:51.320Z,97665.50
2022-08-26T16:01:27.561Z,97663.00
2022-08-26T16:03:59.615Z,97660.81
2022-08-26T16:06:32.266Z,97666.22
2022-08-26T16:09:01.825Z,97661.50
2022-08-26T16:11:31.257Z,97655.13
2022-08-26T16:14:00.391Z,97653.91
2022-08-26T16:16:29.816Z,97647.75
2022-08-26T16:19:05.527Z,97647.22
2022-08-26T16:21:37.347Z,97649.72
2022-08-26T16:24:07.667Z,97651.13
2022-08-26T16:26:38.846Z,97637.50
2022-08-26T16:29:12.330Z,97633.63
2022-08-26T16:31:42.139Z,97629.28
2022-08-26T16:34:12.764Z,97634.19
2022-08-26T16:36:43.729Z,97634.09
2022-08-26T16:39:13.377Z,97629.28
2022-08-26T16:41:42.772Z,97628.06
2022-08-26T16:44:12.041Z,97628.50
2022-08-26T16:46:41.777Z,97623.25
2022-08-26T16:49:12.656Z,97629.47
2022-08-26T16:51:41.876Z,97627.56
2022-08-26T16:54:10.988Z,97628.03
2022-08-26T16:56:40.808Z,97632.97
2022-08-26T16:59:11.782Z,97625.94
2022-08-26T17:01:40.949Z,97630.75
2022-08-26T17:04:10.112Z,97627.31
2022-08-26T17:06:41.669Z,97615.09
2022-08-26T17:09:10.808Z,97623.84
2022-08-26T17:11:40.164Z,97622.63
2022-08-26T17:14:11.601Z,97610.19
2022-08-26T17:16:40.923Z,97623.78
2022-08-26T17:19:11.132Z,97614.72
2022-08-26T17:21:41.637Z,97613.31
2022-08-26T17:24:10.739Z,97613.88
2022-08-26T17:26:40.039Z,97612.31
2022-08-26T17:29:09.101Z,97608.75
2022-08-26T17:31:38.245Z,97614.44
2022-08-26T17:34:07.851Z,97613.56
2022-08-26T17:36:36.943Z,97615.94
2022-08-26T17:39:07.516Z,97614.06
2022-08-26T17:41:36.600Z,97619.34
2022-08-26T17:44:07.034Z,97619.91
2022-08-26T17:46:38.479Z,97619.84
2022-08-26T17:49:09.995Z,97619.47
2022-08-26T17:51:39.123Z,97623.41
2022-08-26T17:54:09.594Z,97630.81
2022-08-26T17:56:38.692Z,97632.22
2022-08-26T17:59:07.806Z,97625.84
2022-08-26T18:01:37.371Z,97629.06
2022-08-26T18:04:06.586Z,97624.88
2022-08-26T18:06:36.776Z,97623.97
2022-08-26T18:09:06.670Z,97629.28
2022-08-26T18:11:38.457Z,97633.06
2022-08-26T18:14:07.561Z,97630.50
2022-08-26T18:16:38.496Z,97636.81
2022-08-26T18:19:08.888Z,97635.81
2022-08-26T18:21:37.989Z,97641.09
2022-08-26T18:24:12.145Z,97641.38
2022-08-26T18:26:48.844Z,97644.28
2022-08-26T18:29:19.562Z,97645.59
2022-08-26T18:31:49.667Z,97647.44
2022-08-26T18:34:19.483Z,97642.47
2022-08-26T18:36:49.184Z,97646.91
2022-08-26T18:39:19.525Z,97648.75
2022-08-26T18:41:54.517Z,97652.66
2022-08-26T18:44:24.364Z,97656.34
2022-08-26T18:46:53.821Z,97652.94
2022-08-26T18:49:23.336Z,97656.84
2022-08-26T18:51:52.767Z,97663.63
2022-08-26T18:54:22.539Z,97669.81
2022-08-26T18:56:53.180Z,97672.41
2022-08-26T18:59:26.758Z,97678.13
2022-08-26T19:02:00.231Z,97679.91
2022-08-26T19:04:29.647Z,97683.38
2022-08-26T19:06:58.852Z,97686.78
2022-08-26T19:09:28.122Z,97682.66
2022-08-26T19:11:59.651Z,97688.59
2022-08-26T19:14:31.244Z,97682.31
2022-08-26T19:17:01.274Z,97686.69
2022-08-26T19:19:31.938Z,97699.94
2022-08-26T19:22:01.266Z,97693.13
2022-08-26T19:24:30.507Z,97699.34
2022-08-26T19:27:02.920Z,97701.72
2022-08-26T19:29:36.013Z,97700.38
2022-08-26T19:32:06.632Z,97695.13
2022-08-26T19:34:36.428Z,97698.59
2022-08-26T19:37:05.958Z,97704.78
2022-08-26T19:39:36.197Z,97706.34
2022-08-26T19:42:07.345Z,97709.34
2022-08-26T19:44:55.088Z,97711.13
2022-08-26T19:47:25.561Z,97717.28
2022-08-26T19:49:57.580Z,97722.06
2022-08-26T19:52:30.368Z,97727.16
2022-08-26T19:55:00.072Z,97713.44
2022-08-26T19:57:30.749Z,97724.03
2022-08-26T20:00:01.171Z,97724.78
2022-08-26T20:02:30.880Z,97717.75
2022-08-26T20:05:00.165Z,97723.69
2022-08-26T20:07:29.490Z,97716.47
2022-08-26T20:09:59.719Z,97713.06
2022-08-26T20:12:33.386Z,97720.59
2022-08-26T20:15:06.459Z,97712.66
2022-08-26T20:17:35.809Z,97722.44
2022-08-26T20:20:42.047Z,97725.13
2022-08-26T20:23:11.278Z,97714.94
2022-08-26T20:25:42.877Z,97716.38
2022-08-26T20:28:13.487Z,97724.81
2022-08-26T20:30:42.639Z,97722.75
2022-08-26T20:33:11.878Z,97720.66
2022-08-26T20:35:42.187Z,97718.66
2022-08-26T20:38:21.618Z,97718.13
2022-08-26T20:40:51.100Z,97710.63
2022-08-26T20:43:24.776Z,97712.06
2022-08-26T20:45:54.563Z,97720.97
2022-08-26T20:48:23.812Z,97716.03
2022-08-26T20:50:53.245Z,97716.09
2022-08-26T20:53:22.442Z,97720.53
2022-08-26T20:55:55.601Z,97720.13
2022-08-26T20:58:27.637Z,97716.13
2022-08-26T21:00:57.323Z,97724.81
2022-08-26T21:03:27.826Z,97715.97
2022-08-26T21:05:57.088Z,97717.84
2022-08-26T21:08:26.393Z,97713.28
2022-08-26T21:10:55.724Z,97714.09
2022-08-26T21:13:25.422Z,97712.81
2022-08-26T21:15:59.825Z,97711.53
2022-08-26T21:18:29.275Z,97714.34
2022-08-26T21:20:58.947Z,97711.13
2022-08-26T21:23:29.378Z,97714.47
2022-08-26T21:26:03.644Z,97713.28
2022-08-26T21:28:33.016Z,97712.81
2022-08-26T21:31:08.441Z,97709.84
2022-08-26T21:33:38.699Z,97711.38
2022-08-26T21:36:09.986Z,97715.28
2022-08-26T21:38:40.437Z,97708.38
2022-08-26T21:41:14.166Z,97710.16
2022-08-26T21:43:45.603Z,97713.66
2022-08-26T21:46:19.122Z,97717.84
2022-08-26T21:48:51.180Z,97715.84
2022-08-26T21:51:23.683Z,97718.47
2022-08-26T21:53:53.578Z,97724.19
2022-08-26T21:56:25.868Z,97718.78
2022-08-26T21:58:56.104Z,97725.75
2022-08-26T22:01:31.939Z,97709.63
2022-08-26T22:04:03.212Z,97718.84
2022-08-26T22:06:34.707Z,97715.63
2022-08-26T22:09:04.022Z,97711.00
2022-08-26T22:11:33.332Z,97711.78
2022-08-26T22:14:02.548Z,97704.13
2022-08-26T22:16:33.146Z,97707.66
2022-08-26T22:19:02.483Z,97707.09
2022-08-26T22:21:32.218Z,97705.34
2022-08-26T22:24:01.491Z,97711.03
2022-08-26T22:26:33.630Z,97704.94
2022-08-26T22:29:03.578Z,97696.09
2022-08-26T22:31:37.893Z,97692.88
2022-08-26T22:34:10.883Z,97687.28
2022-08-26T22:36:44.464Z,97690.19
2022-08-26T22:39:14.858Z,97687.84
2022-08-26T22:41:45.055Z,97690.41
2022-08-26T22:44:17.131Z,97681.56
2022-08-26T22:46:49.079Z,97693.66
2022-08-26T22:49:19.638Z,97694.34
2022-08-26T22:51:49.237Z,97698.28
2022-08-26T22:54:19.684Z,97697.59
2022-08-26T22:56:48.943Z,97707.09
2022-08-26T22:59:18.160Z,97704.25
2022-08-26T23:01:48.742Z,97704.06
2022-08-26T23:04:17.975Z,97708.31
2022-08-26T23:06:48.071Z,97704.03
2022-08-26T23:09:18.901Z,97700.34
2022-08-26T23:11:50.040Z,97702.31
2022-08-26T23:14:20.289Z,97695.13
2022-08-26T23:16:51.568Z,97694.75
2022-08-26T23:19:23.286Z,97692.66
2022-08-26T23:21:52.700Z,97695.56
2022-08-26T23:24:22.536Z,97694.63
2022-08-26T23:26:51.914Z,97693.09
2022-08-26T23:29:21.205Z,97688.78
2022-08-26T23:31:51.987Z,97693.91
2022-08-26T23:34:39.126Z,97688.78
2022-08-26T23:37:09.236Z,97692.81
2022-08-26T23:39:38.449Z,97689.78
2022-08-26T23:42:08.246Z,97689.19
2022-08-26T23:44:37.814Z,97691.06
2022-08-26T23:47:09.788Z,97688.22
2022-08-26T23:49:39.073Z,97680.84
2022-08-26T23:52:26.447Z,97684.47
2022-08-26T23:54:55.793Z,97680.41
2022-08-26T23:57:28.656Z,97671.50
2022-08-26T23:59:59.245Z,97675.19
